Time;durP1;ratioP1;P1;durP2;ratioP2;P2;SDS_P1;SDS_P2;PMS_P1;PMS_P2;Temp;Humidity;BMP_temperature;BMP_pressure;BME280_temperature;BME280_humidity;BME280_pressure;Samples;Min_cycle;Max_cycle;Signal;HPM_P1;HPM_P2
2023/06/08 10:21:09;;;;;;;9.68;5.85;;;24.10;99.90;;;;;;4513816;23;20236;-70
2023/06/08 10:23:36;;;;;;;8.63;5.60;;;24.10;99.90;;;;;;4937674;29;20232;-71
2023/06/08 10:26:05;;;;;;;11.73;6.57;;;24.00;99.90;;;;;;4947564;29;20646;-70
2023/06/08 10:28:32;;;;;;;9.70;6.10;;;23.90;99.90;;;;;;4938015;29;20232;-71
2023/06/08 10:30:58;;;;;;;9.80;5.43;;;23.80;99.90;;;;;;4945539;29;20275;-70
2023/06/08 10:33:27;;;;;;;10.18;5.50;;;23.90;99.90;;;;;;4955602;29;20662;-70
2023/06/08 10:36:05;;;;;;;11.57;5.88;;;23.80;99.90;;;;;;4954646;29;20223;-69
2023/06/08 10:38:37;;;;;;;9.13;5.20;;;24.00;99.90;;;;;;4949464;29;20259;-69
2023/06/08 10:41:05;;;;;;;7.45;4.80;;;24.30;99.90;;;;;;4954540;29;20259;-70
2023/06/08 10:43:31;;;;;;;9.63;5.82;;;24.30;99.90;;;;;;4954917;29;20216;-70
2023/06/08 10:45:59;;;;;;;10.65;5.35;;;24.40;99.90;;;;;;4954394;29;20201;-70
2023/06/08 10:48:37;;;;;;;11.68;6.05;;;24.40;99.90;;;;;;4942987;29;20532;-68
2023/06/08 10:51:06;;;;;;;10.05;5.90;;;24.60;99.90;;;;;;4943632;29;20200;-69
2023/06/08 10:53:56;;;;;;;8.57;5.10;;;24.70;99.90;;;;;;4954507;29;20215;-69
2023/06/08 10:56:26;;;;;;;8.70;5.35;;;24.60;99.90;;;;;;4953919;29;20204;-69
2023/06/08 10:58:53;;;;;;;7.55;4.35;;;24.40;99.90;;;;;;4953998;29;20215;-69
2023/06/08 11:01:22;;;;;;;7.90;4.63;;;24.30;99.90;;;;;;4954369;29;20362;-69
2023/06/08 11:03:49;;;;;;;10.43;5.43;;;24.50;99.90;;;;;;4954426;28;20266;-69
2023/06/08 11:06:16;;;;;;;12.57;5.10;;;24.40;99.90;;;;;;4954379;29;20211;-70
2023/06/08 11:08:47;;;;;;;8.25;5.10;;;24.60;99.90;;;;;;4954554;29;20204;-70
2023/06/08 11:11:13;;;;;;;6.68;4.38;;;24.60;99.90;;;;;;4954430;29;20216;-69
2023/06/08 11:13:40;;;;;;;9.10;4.43;;;24.50;99.90;;;;;;4954278;29;20540;-70
2023/06/08 11:16:07;;;;;;;8.82;4.95;;;24.40;99.90;;;;;;4948727;29;20205;-69
2023/06/08 11:18:34;;;;;;;7.70;4.30;;;24.30;99.90;;;;;;4935479;29;20585;-69
2023/06/08 11:21:02;;;;;;;9.98;5.43;;;24.40;99.90;;;;;;4941428;29;20270;-70
2023/06/08 11:23:33;;;;;;;6.05;4.70;;;24.60;99.90;;;;;;4954385;29;20543;-69
2023/06/08 11:26:02;;;;;;;9.25;4.60;;;24.70;99.90;;;;;;4954186;29;20200;-69
2023/06/08 11:28:28;;;;;;;9.80;5.30;;;24.90;99.90;;;;;;4954121;29;20238;-69
2023/06/08 11:30:57;;;;;;;11.48;5.22;;;24.80;99.90;;;;;;4954249;29;20655;-69
2023/06/08 11:33:25;;;;;;;9.55;5.85;;;24.70;99.90;;;;;;4954256;29;20651;-69
2023/06/08 11:35:52;;;;;;;7.05;4.55;;;24.70;99.90;;;;;;4953612;29;20657;-69
2023/06/08 11:38:23;;;;;;;7.00;4.00;;;24.80;99.90;;;;;;4954546;29;20234;-69
2023/06/08 11:40:50;;;;;;;8.80;4.95;;;24.80;99.90;;;;;;4954038;29;20258;-70
2023/06/08 11:43:20;;;;;;;9.48;4.95;;;24.90;99.90;;;;;;4954522;29;20218;-69
2023/06/08 11:45:47;;;;;;;7.88;5.28;;;25.10;99.90;;;;;;4954483;29;20215;-70
2023/06/08 11:48:14;;;;;;;7.65;4.53;;;24.90;99.90;;;;;;4954529;29;20254;-69
2023/06/08 11:50:47;;;;;;;8.18;4.70;;;25.00;99.90;;;;;;4954439;29;20298;-68
2023/06/08 11:53:16;;;;;;;6.70;4.07;;;24.90;99.90;;;;;;4954253;29;20215;-68
2023/06/08 11:55:45;;;;;;;7.25;4.05;;;24.90;99.90;;;;;;4954495;29;20258;-68
2023/06/08 11:58:14;;;;;;;9.05;4.70;;;24.90;99.90;;;;;;4954111;29;20726;-68
2023/06/08 12:00:42;;;;;;;6.15;4.53;;;25.10;99.90;;;;;;4954078;29;20271;-69
2023/06/08 12:03:09;;;;;;;7.65;4.03;;;25.10;99.90;;;;;;4954280;29;20208;-69
2023/06/08 12:05:38;;;;;;;6.57;4.22;;;25.10;99.90;;;;;;4954131;29;20851;-69
2023/06/08 12:08:09;;;;;;;5.05;3.78;;;25.20;99.90;;;;;;4953822;29;20236;-68
2023/06/08 12:10:38;;;;;;;6.13;4.38;;;25.30;99.90;;;;;;4954067;29;20222;-68
2023/06/08 12:13:06;;;;;;;10.63;4.13;;;25.30;99.90;;;;;;4953559;29;20216;-70
2023/06/08 12:15:36;;;;;;;6.55;4.43;;;25.40;99.90;;;;;;4953882;28;20267;-71
2023/06/08 12:18:05;;;;;;;8.25;4.43;;;25.20;99.90;;;;;;4957080;29;20287;-69
2023/06/08 12:20:33;;;;;;;6.97;3.67;;;25.40;99.90;;;;;;4957420;29;20235;-70
2023/06/08 12:23:00;;;;;;;8.68;3.67;;;25.50;99.90;;;;;;4957334;29;20208;-70
2023/06/08 12:25:27;;;;;;;6.90;4.00;;;25.50;99.90;;;;;;4957276;29;20685;-69
2023/06/08 12:27:54;;;;;;;5.45;3.70;;;25.40;99.90;;;;;;4956974;29;20224;-70
2023/06/08 12:30:21;;;;;;;6.70;3.58;;;25.50;99.90;;;;;;4957406;29;20216;-70
2023/06/08 12:32:48;;;;;;;6.38;3.25;;;25.60;99.90;;;;;;4957428;29;20208;-70
2023/06/08 12:35:17;;;;;;;4.63;3.00;;;25.70;99.70;;;;;;4957365;29;20215;-70
2023/06/08 12:37:48;;;;;;;7.30;3.80;;;25.70;99.40;;;;;;4957188;29;20238;-70
2023/06/08 12:40:15;;;;;;;4.18;2.78;;;25.60;99.30;;;;;;4952410;29;20208;-71
2023/06/08 12:42:46;;;;;;;6.43;3.60;;;25.50;99.40;;;;;;4955370;29;20659;-71
2023/06/08 12:45:13;;;;;;;6.20;3.90;;;25.50;99.70;;;;;;4951607;29;20244;-69
2023/06/08 12:47:40;;;;;;;6.43;3.28;;;25.60;99.30;;;;;;4955431;29;20228;-70
2023/06/08 12:50:08;;;;;;;6.63;3.35;;;25.60;99.90;;;;;;4951678;29;20205;-71
2023/06/08 12:52:37;;;;;;;6.03;2.97;;;25.50;99.40;;;;;;4936644;29;20208;-70
2023/06/08 12:55:04;;;;;;;5.68;3.58;;;25.50;99.90;;;;;;4940969;29;20208;-70
2023/06/08 12:57:31;;;;;;;4.65;3.13;;;25.60;99.90;;;;;;4955404;29;20695;-68
2023/06/08 12:59:58;;;;;;;7.55;3.65;;;25.70;99.40;;;;;;4954430;29;20283;-67
2023/06/08 13:02:26;;;;;;;6.47;3.28;;;25.60;99.80;;;;;;4955605;29;20231;-70
2023/06/08 13:04:53;;;;;;;6.25;3.30;;;25.60;99.70;;;;;;4955316;29;20216;-69
2023/06/08 13:07:20;;;;;;;6.68;3.25;;;25.80;99.30;;;;;;4954214;29;20228;-70
2023/06/08 13:09:48;;;;;;;4.05;3.17;;;25.90;99.20;;;;;;4953257;29;20212;-69
2023/06/08 13:12:15;;;;;;;4.20;2.63;;;25.90;99.20;;;;;;4954755;29;20544;-71
2023/06/08 13:14:42;;;;;;;8.70;3.40;;;26.00;99.30;;;;;;4953747;29;20239;-70
2023/06/08 13:17:09;;;;;;;5.97;3.72;;;26.00;99.50;;;;;;4954381;29;20235;-69
2023/06/08 13:19:36;;;;;;;5.82;3.20;;;26.00;99.40;;;;;;4953777;29;20666;-71
2023/06/08 13:22:04;;;;;;;4.18;2.85;;;26.10;99.50;;;;;;4953991;29;20326;-70
2023/06/08 13:24:31;;;;;;;5.78;3.30;;;26.00;99.30;;;;;;4954591;29;20239;-68
2023/06/08 13:26:59;;;;;;;6.88;3.20;;;25.90;98.90;;;;;;4952741;28;20234;-72
2023/06/08 13:29:26;;;;;;;5.10;3.42;;;25.80;99.00;;;;;;4953666;29;20208;-71
2023/06/08 13:31:53;;;;;;;4.35;3.25;;;25.90;99.00;;;;;;4952895;29;20575;-71
2023/06/08 13:34:20;;;;;;;4.97;3.25;;;26.00;98.90;;;;;;4955109;29;20203;-70
2023/06/08 13:36:47;;;;;;;4.68;2.90;;;26.20;98.80;;;;;;4955396;29;20232;-71
2023/06/08 13:39:14;;;;;;;4.65;3.20;;;26.30;98.50;;;;;;4937910;29;20303;-70
